Terminal Aerodrome Forecast
Issued by NWS

Home | Current Version | Previous Version | Text Only | Print | Product List | Glossary On
Versions: 1 2 3 4 5 6 7 8 9 10 11 12 13 14 15 16 17 18 19 20 21 22 23 24 25 26 27 28 29 30 31
000
FTUS45 KGJT 051126
TAFMTJ
TAF
KMTJ 051126Z 0512/0612 VRB03KT P6SM VCSH SCT060 BKN080
      TEMPO 0513/0517 VRB15KT -SHRA BKN060
     FM052000 23010KT P6SM -TSRA SCT050 BKN080CB
     FM060200 17005KT P6SM VCSH SCT060 BKN090=

USA.gov is the U.S. government's official web portal to all federal, state and local government web resources and services.